createdAt,value
2023-04-17T00:00:04.222Z,511.00
2023-04-17T00:01:04.229Z,509.00
2023-04-17T00:02:04.234Z,507.00
2023-04-17T00:03:04.497Z,514.00
2023-04-17T00:04:04.384Z,510.00
2023-04-17T00:05:04.219Z,510.00
2023-04-17T00:06:04.201Z,510.00
2023-04-17T00:07:04.196Z,504.00
2023-04-17T00:08:04.197Z,513.00
2023-04-17T00:09:04.189Z,510.00
2023-04-17T00:10:04.186Z,508.00
2023-04-17T00:11:07.710Z,511.00
2023-04-17T00:12:04.178Z,512.00
2023-04-17T00:13:04.165Z,513.00
2023-04-17T00:14:04.188Z,513.00
2023-04-17T00:15:04.170Z,513.00
2023-04-17T00:16:04.196Z,512.00
2023-04-17T00:17:04.161Z,514.00
2023-04-17T00:18:04.169Z,510.00
2023-04-17T00:19:04.152Z,513.00
2023-04-17T00:20:04.143Z,510.00
2023-04-17T00:21:04.151Z,509.00
2023-04-17T00:22:04.146Z,513.00
2023-04-17T00:23:04.142Z,515.00
2023-04-17T00:24:04.145Z,508.00
2023-04-17T00:25:04.121Z,508.00
2023-04-17T00:26:04.134Z,512.00
2023-04-17T00:27:04.138Z,505.00
2023-04-17T00:28:04.118Z,510.00
2023-04-17T00:29:04.119Z,510.00
2023-04-17T00:30:04.103Z,512.00
2023-04-17T00:31:04.128Z,511.00
2023-04-17T00:32:04.232Z,516.00
2023-04-17T00:33:04.248Z,513.00
2023-04-17T00:34:04.249Z,510.00
2023-04-17T00:35:04.300Z,512.00
2023-04-17T00:36:04.360Z,513.00
2023-04-17T00:37:04.411Z,505.00
2023-04-17T00:38:04.445Z,510.00
2023-04-17T00:39:04.508Z,511.00
2023-04-17T00:40:04.542Z,510.00
2023-04-17T00:41:04.587Z,516.00
2023-04-17T00:42:04.624Z,504.00
2023-04-17T00:43:04.686Z,515.00
2023-04-17T00:44:04.727Z,511.00
2023-04-17T00:45:04.777Z,510.00
2023-04-17T00:46:04.902Z,511.00
2023-04-17T00:47:04.887Z,505.00
2023-04-17T00:48:04.993Z,511.00
2023-04-17T00:49:04.984Z,509.00
2023-04-17T00:50:05.051Z,509.00
2023-04-17T00:51:05.088Z,515.00
2023-04-17T00:52:05.143Z,509.00
2023-04-17T00:53:05.215Z,510.00
2023-04-17T00:54:05.237Z,507.00
2023-04-17T00:55:05.284Z,510.00
2023-04-17T00:56:05.340Z,507.00
2023-04-17T00:57:05.388Z,512.00
2023-04-17T00:58:05.438Z,505.00
2023-04-17T00:59:05.471Z,506.00
2023-04-17T01:00:05.605Z,507.00
2023-04-17T01:01:05.646Z,505.00
2023-04-17T01:02:05.699Z,506.00
2023-04-17T01:03:05.764Z,509.00
2023-04-17T01:04:05.832Z,505.00
2023-04-17T01:05:05.754Z,509.00
2023-04-17T01:06:05.796Z,513.00
2023-04-17T01:07:05.857Z,507.00
2023-04-17T01:08:05.897Z,508.00
2023-04-17T01:09:05.941Z,515.00
2023-04-17T01:10:05.978Z,513.00
2023-04-17T01:11:06.037Z,505.00
2023-04-17T01:12:06.096Z,509.00
2023-04-17T01:13:06.146Z,510.00
2023-04-17T01:14:06.192Z,507.00
2023-04-17T01:15:06.232Z,513.00
2023-04-17T01:16:06.294Z,507.00
2023-04-17T01:17:06.419Z,507.00
2023-04-17T01:18:06.396Z,512.00
2023-04-17T01:19:06.446Z,510.00
2023-04-17T01:20:06.539Z,507.00
2023-04-17T01:21:06.532Z,506.00
2023-04-17T01:22:06.592Z,505.00
2023-04-17T01:23:06.631Z,508.00
2023-04-17T01:24:06.693Z,509.00
2023-04-17T01:25:06.732Z,507.00
2023-04-17T01:26:06.786Z,507.00
2023-04-17T01:27:06.833Z,509.00
2023-04-17T01:28:06.879Z,506.00
2023-04-17T01:29:06.973Z,506.00
2023-04-17T01:30:06.992Z,510.00
2023-04-17T01:31:07.051Z,507.00
2023-04-17T01:32:07.090Z,503.00
2023-04-17T01:33:07.189Z,505.00
2023-04-17T01:34:07.172Z,504.00
2023-04-17T01:35:07.219Z,505.00
2023-04-17T01:36:07.279Z,504.00
2023-04-17T01:37:07.323Z,509.00
2023-04-17T01:38:07.382Z,508.00
2023-04-17T01:39:07.427Z,508.00
2023-04-17T01:40:07.471Z,509.00
2023-04-17T01:41:07.516Z,509.00
2023-04-17T01:42:07.562Z,509.00
2023-04-17T01:43:07.624Z,505.00
2023-04-17T01:44:07.660Z,503.00
2023-04-17T01:45:07.712Z,509.00
2023-04-17T01:46:07.793Z,508.00
2023-04-17T01:47:07.800Z,504.00
2023-04-17T01:48:07.849Z,507.00
2023-04-17T01:49:07.913Z,504.00
2023-04-17T01:50:07.955Z,506.00
2023-04-17T01:51:08.004Z,506.00
2023-04-17T01:52:08.050Z,509.00
2023-04-17T01:53:08.087Z,506.00
2023-04-17T01:54:08.137Z,508.00
2023-04-17T01:55:08.184Z,505.00
2023-04-17T01:56:08.227Z,507.00
2023-04-17T01:57:08.276Z,501.00
2023-04-17T01:58:08.327Z,504.00
2023-04-17T01:59:08.380Z,505.00
2023-04-17T02:00:08.420Z,513.00
2023-04-17T02:01:08.478Z,502.00
2023-04-17T02:02:08.666Z,503.00
2023-04-17T02:03:08.650Z,505.00
2023-04-17T02:04:08.763Z,510.00
2023-04-17T02:05:08.638Z,500.00
2023-04-17T02:06:08.688Z,505.00
2023-04-17T02:07:08.749Z,502.00
2023-04-17T02:08:08.795Z,500.00
2023-04-17T02:09:08.969Z,506.00
2023-04-17T02:10:08.876Z,504.00
2023-04-17T02:11:08.937Z,506.00
2023-04-17T02:12:08.968Z,502.00
2023-04-17T02:13:09.009Z,508.00
2023-04-17T02:14:09.069Z,500.00
2023-04-17T02:15:09.120Z,504.00
2023-04-17T02:16:09.181Z,506.00
2023-04-17T02:17:09.199Z,501.00
2023-04-17T02:18:09.300Z,508.00
2023-04-17T02:19:09.455Z,505.00
2023-04-17T02:20:09.358Z,505.00
2023-04-17T02:21:09.405Z,511.00
2023-04-17T02:22:09.448Z,507.00
2023-04-17T02:23:09.509Z,510.00
2023-04-17T02:24:09.537Z,501.00
2023-04-17T02:25:09.587Z,507.00
2023-04-17T02:26:09.646Z,505.00
2023-04-17T02:27:09.695Z,504.00
2023-04-17T02:28:09.739Z,503.00
2023-04-17T02:29:09.965Z,508.00
2023-04-17T02:30:09.836Z,510.00
2023-04-17T02:31:09.901Z,506.00
2023-04-17T02:32:09.927Z,508.00
2023-04-17T02:33:09.965Z,507.00
2023-04-17T02:34:10.004Z,509.00
2023-04-17T02:35:10.067Z,507.00
2023-04-17T02:36:10.103Z,506.00
2023-04-17T02:37:10.150Z,507.00
2023-04-17T02:38:10.155Z,502.00
2023-04-17T02:39:10.313Z,500.00
2023-04-17T02:40:10.214Z,508.00
2023-04-17T02:41:10.257Z,502.00
2023-04-17T02:42:10.272Z,506.00
2023-04-17T02:43:10.298Z,504.00
2023-04-17T02:44:10.318Z,505.00
2023-04-17T02:45:10.362Z,502.00
2023-04-17T02:46:10.411Z,502.00
2023-04-17T02:47:10.386Z,503.00
2023-04-17T02:48:10.414Z,502.00
2023-04-17T02:49:10.672Z,505.00
2023-04-17T02:50:10.454Z,501.00
2023-04-17T02:51:10.475Z,503.00
2023-04-17T02:52:10.515Z,506.00
2023-04-17T02:53:10.499Z,505.00
2023-04-17T02:54:10.509Z,504.00
2023-04-17T02:55:10.531Z,502.00
2023-04-17T02:56:10.541Z,506.00
2023-04-17T02:57:10.560Z,502.00
2023-04-17T02:58:10.567Z,506.00
2023-04-17T02:59:10.888Z,503.00
2023-04-17T03:00:10.602Z,508.00
2023-04-17T03:01:10.639Z,500.00
2023-04-17T03:02:10.730Z,503.00
2023-04-17T03:03:10.826Z,505.00
2023-04-17T03:04:10.710Z,505.00
2023-04-17T03:05:10.651Z,502.00
2023-04-17T03:06:10.653Z,503.00
2023-04-17T03:07:10.671Z,505.00
2023-04-17T03:08:10.674Z,501.00
2023-04-17T03:09:10.866Z,501.00
2023-04-17T03:10:10.685Z,502.00
2023-04-17T03:11:10.703Z,504.00
2023-04-17T03:12:10.706Z,504.00
2023-04-17T03:13:10.696Z,502.00
2023-04-17T03:14:10.704Z,503.00
2023-04-17T03:15:10.703Z,502.00
2023-04-17T03:16:10.757Z,504.00
2023-04-17T03:17:10.728Z,501.00
2023-04-17T03:18:10.699Z,500.00
2023-04-17T03:19:10.872Z,503.00
2023-04-17T03:20:10.701Z,505.00
2023-04-17T03:21:10.701Z,505.00
2023-04-17T03:22:12.706Z,502.00
2023-04-17T03:23:10.832Z,506.00
2023-04-17T03:24:10.833Z,502.00
2023-04-17T03:25:10.821Z,505.00
2023-04-17T03:26:10.821Z,503.00
2023-04-17T03:27:10.832Z,506.00
2023-04-17T03:28:10.815Z,507.00
2023-04-17T03:29:11.050Z,506.00
2023-04-17T03:30:10.828Z,508.00
2023-04-17T03:31:10.827Z,507.00
2023-04-17T03:32:10.913Z,503.00
2023-04-17T03:33:10.822Z,505.00
2023-04-17T03:34:10.821Z,504.00
2023-04-17T03:35:10.817Z,503.00
2023-04-17T03:36:10.818Z,505.00
2023-04-17T03:37:10.813Z,503.00
2023-04-17T03:38:10.803Z,506.00
2023-04-17T03:39:11.015Z,502.00
2023-04-17T03:40:10.792Z,507.00
2023-04-17T03:41:10.795Z,502.00
2023-04-17T03:42:10.795Z,506.00
2023-04-17T03:43:10.791Z,505.00
2023-04-17T03:44:10.797Z,502.00
2023-04-17T03:45:10.781Z,505.00
2023-04-17T03:46:10.809Z,502.00
2023-04-17T03:47:10.759Z,502.00
2023-04-17T03:48:10.762Z,505.00
2023-04-17T03:49:10.982Z,504.00
2023-04-17T03:50:10.777Z,505.00
2023-04-17T03:51:10.796Z,501.00
2023-04-17T03:52:10.810Z,503.00
2023-04-17T03:53:10.822Z,506.00
2023-04-17T03:54:10.834Z,504.00
2023-04-17T03:55:10.859Z,504.00
2023-04-17T03:56:10.880Z,500.00
2023-04-17T03:57:10.889Z,506.00
2023-04-17T03:58:10.891Z,504.00
2023-04-17T03:59:11.139Z,505.00
2023-04-17T04:00:10.930Z,501.00
2023-04-17T04:01:10.997Z,505.00
2023-04-17T04:02:11.097Z,502.00
2023-04-17T04:03:11.218Z,503.00
2023-04-17T04:04:11.120Z,510.00
2023-04-17T04:05:11.077Z,505.00
2023-04-17T04:06:11.058Z,507.00
2023-04-17T04:07:11.086Z,508.00
2023-04-17T04:08:11.099Z,502.00
2023-04-17T04:09:11.329Z,504.00
2023-04-17T04:10:11.124Z,504.00
2023-04-17T04:11:11.147Z,504.00
2023-04-17T04:12:11.155Z,500.00
2023-04-17T04:13:11.175Z,504.00
2023-04-17T04:14:11.195Z,502.00
2023-04-17T04:15:11.211Z,502.00
2023-04-17T04:16:11.285Z,502.00
2023-04-17T04:17:11.250Z,506.00
2023-04-17T04:18:11.286Z,506.00
2023-04-17T04:19:11.487Z,505.00
2023-04-17T04:20:11.325Z,504.00
2023-04-17T04:21:11.340Z,505.00
2023-04-17T04:22:11.355Z,506.00
2023-04-17T04:23:11.369Z,502.00
2023-04-17T04:24:11.390Z,504.00
2023-04-17T04:25:11.413Z,505.00
2023-04-17T04:26:11.427Z,504.00
2023-04-17T04:27:11.464Z,505.00
2023-04-17T04:28:11.487Z,507.00
2023-04-17T04:29:11.696Z,502.00
2023-04-17T04:30:11.516Z,508.00
2023-04-17T04:31:11.590Z,503.00
2023-04-17T04:32:11.563Z,503.00
2023-04-17T04:33:11.573Z,504.00
2023-04-17T04:34:11.587Z,501.00
2023-04-17T04:35:11.610Z,504.00
2023-04-17T04:36:11.631Z,501.00
2023-04-17T04:37:11.663Z,506.00
2023-04-17T04:38:11.834Z,507.00
2023-04-17T04:39:11.817Z,507.00
2023-04-17T04:40:11.711Z,503.00
2023-04-17T04:41:11.726Z,506.00
2023-04-17T04:42:11.773Z,505.00
2023-04-17T04:43:11.771Z,507.00
2023-04-17T04:44:11.794Z,504.00
2023-04-17T04:45:11.809Z,504.00
2023-04-17T04:46:11.860Z,507.00
2023-04-17T04:47:11.861Z,507.00
2023-04-17T04:48:11.880Z,504.00
2023-04-17T04:49:12.190Z,504.00
2023-04-17T04:50:11.918Z,506.00
2023-04-17T04:51:11.943Z,508.00
2023-04-17T04:52:11.967Z,508.00
2023-04-17T04:53:11.986Z,504.00
2023-04-17T04:54:11.997Z,505.00
2023-04-17T04:55:12.019Z,504.00
2023-04-17T04:56:12.055Z,501.00
2023-04-17T04:57:12.068Z,504.00
2023-04-17T04:58:12.102Z,507.00
2023-04-17T04:59:12.233Z,510.00
2023-04-17T05:00:12.129Z,505.00
2023-04-17T05:01:12.226Z,506.00
2023-04-17T05:02:12.263Z,504.00
2023-04-17T05:04:12.340Z,505.00
2023-04-17T05:05:12.254Z,508.00
2023-04-17T05:06:12.281Z,505.00
2023-04-17T05:07:12.292Z,503.00
2023-04-17T05:08:12.334Z,503.00
2023-04-17T05:09:14.681Z,504.00
2023-04-17T05:10:12.323Z,506.00
2023-04-17T05:11:12.344Z,508.00
2023-04-17T05:12:12.290Z,509.00
2023-04-17T05:13:12.289Z,508.00
2023-04-17T05:14:12.280Z,505.00
2023-04-17T05:15:12.265Z,505.00
2023-04-17T05:16:12.325Z,504.00
2023-04-17T05:17:12.251Z,503.00
2023-04-17T05:18:12.265Z,503.00
2023-04-17T05:19:12.602Z,502.00
2023-04-17T05:20:12.283Z,501.00
2023-04-17T05:21:12.232Z,503.00
2023-04-17T05:22:12.204Z,500.00
2023-04-17T05:23:12.198Z,504.00
2023-04-17T05:24:12.938Z,500.00
2023-04-17T05:25:12.177Z,502.00
2023-04-17T05:26:12.156Z,503.00
2023-04-17T05:27:12.145Z,508.00
2023-04-17T05:28:13.362Z,509.00
2023-04-17T05:29:12.301Z,513.00
2023-04-17T05:30:12.111Z,523.00
2023-04-17T05:31:12.107Z,535.00
2023-04-17T05:32:12.105Z,545.00
2023-04-17T05:33:12.070Z,558.00
2023-04-17T05:34:12.040Z,568.00
2023-04-17T05:35:12.030Z,590.00
2023-04-17T05:36:12.040Z,606.00
2023-04-17T05:37:11.997Z,636.00
2023-04-17T05:38:11.977Z,662.00
2023-04-17T05:39:12.075Z,711.00
2023-04-17T05:40:11.949Z,762.00
2023-04-17T05:41:11.930Z,834.00
2023-04-17T05:42:11.971Z,876.00
2023-04-17T05:43:12.065Z,945.00
2023-04-17T05:44:12.033Z,1016.00
2023-04-17T05:45:12.102Z,1072.00
2023-04-17T05:46:12.152Z,1119.00
2023-04-17T05:47:12.129Z,1162.00
2023-04-17T05:48:12.134Z,1233.00
2023-04-17T05:49:12.458Z,1286.00
2023-04-17T05:50:12.179Z,1333.00
2023-04-17T05:51:12.194Z,1379.00
2023-04-17T05:52:12.206Z,1456.00
2023-04-17T05:53:12.217Z,1528.00
2023-04-17T05:54:12.255Z,1584.00
2023-04-17T05:55:12.252Z,1638.00
2023-04-17T05:56:12.267Z,1683.00
2023-04-17T05:57:12.270Z,1735.00
2023-04-17T05:59:12.445Z,1838.00
2023-04-17T06:00:13.239Z,1841.00
2023-04-17T06:01:12.197Z,1854.00
2023-04-17T06:02:12.235Z,1882.00
2023-04-17T06:03:12.311Z,1947.00
2023-04-17T06:04:12.526Z,2039.00
2023-04-17T06:05:12.333Z,2081.00
2023-04-17T06:06:12.090Z,2116.00
2023-04-17T06:07:12.160Z,2150.00
2023-04-17T06:08:12.014Z,2179.00
2023-04-17T06:09:12.190Z,2218.00
2023-04-17T06:10:11.968Z,2247.00
2023-04-17T06:11:11.969Z,2282.00
2023-04-17T06:12:11.916Z,2315.00
2023-04-17T06:13:11.896Z,2336.00
2023-04-17T06:14:11.881Z,2370.00
2023-04-17T06:15:11.852Z,2405.00
2023-04-17T06:16:11.847Z,2443.00
2023-04-17T06:17:11.929Z,2475.00
2023-04-17T06:18:11.834Z,2495.00
2023-04-17T06:19:12.064Z,2510.00
2023-04-17T06:20:12.028Z,2541.00
2023-04-17T06:21:11.860Z,2557.00
2023-04-17T06:22:11.864Z,2582.00
2023-04-17T06:23:11.867Z,2612.00
2023-04-17T06:24:11.865Z,2630.00
2023-04-17T06:25:11.868Z,2662.00
2023-04-17T06:26:11.904Z,2677.00
2023-04-17T06:27:11.946Z,2703.00
2023-04-17T06:28:11.999Z,2734.00
2023-04-17T06:29:12.327Z,2731.00
2023-04-17T06:30:12.037Z,2732.00
2023-04-17T06:31:12.133Z,2576.00
2023-04-17T06:32:12.516Z,2451.00
2023-04-17T06:33:12.028Z,2270.00
2023-04-17T06:34:12.030Z,2252.00
2023-04-17T06:35:12.060Z,2230.00
2023-04-17T06:36:12.102Z,2224.00
2023-04-17T06:37:12.102Z,2175.00
2023-04-17T06:38:12.112Z,2093.00
2023-04-17T06:39:12.322Z,2033.00
2023-04-17T06:40:13.966Z,2016.00
2023-04-17T06:41:12.097Z,1955.00
2023-04-17T06:42:12.089Z,1925.00
2023-04-17T06:43:12.048Z,1866.00
2023-04-17T06:44:12.020Z,1783.00
2023-04-17T06:45:12.006Z,1724.00
2023-04-17T06:46:12.010Z,1713.00
2023-04-17T06:47:11.942Z,1686.00
2023-04-17T06:48:12.528Z,1623.00
2023-04-17T06:49:12.314Z,1564.00
2023-04-17T06:50:12.493Z,1554.00
2023-04-17T06:51:11.893Z,1525.00
2023-04-17T06:52:11.911Z,1519.00
2023-04-17T06:53:11.909Z,1488.00
2023-04-17T06:54:11.956Z,1459.00
2023-04-17T06:55:11.972Z,1426.00
2023-04-17T06:56:11.990Z,1396.00
2023-04-17T06:57:11.995Z,1256.00
2023-04-17T06:58:12.016Z,1258.00
2023-04-17T06:59:12.256Z,1263.00
2023-04-17T07:00:12.046Z,1248.00
2023-04-17T07:01:12.098Z,1221.00
2023-04-17T07:02:12.159Z,1194.00
2023-04-17T07:03:12.145Z,1157.00
2023-04-17T07:04:12.159Z,1141.00
2023-04-17T07:05:12.106Z,1129.00
2023-04-17T07:06:12.127Z,1099.00
2023-04-17T07:07:12.208Z,1074.00
2023-04-17T07:08:12.150Z,1067.00
2023-04-17T07:09:12.397Z,1074.00
2023-04-17T07:10:12.141Z,1076.00
2023-04-17T07:11:12.122Z,1082.00
2023-04-17T07:12:12.166Z,1092.00
2023-04-17T07:13:12.120Z,1099.00
2023-04-17T07:14:12.995Z,1102.00
2023-04-17T07:15:12.186Z,1133.00
2023-04-17T07:16:12.083Z,1154.00
2023-04-17T07:17:12.073Z,1139.00
2023-04-17T07:18:12.062Z,1132.00
2023-04-17T07:19:12.200Z,1164.00
2023-04-17T07:20:12.061Z,1153.00
2023-04-17T07:21:12.055Z,1169.00
2023-04-17T07:22:12.047Z,1181.00
2023-04-17T07:23:12.034Z,1171.00
2023-04-17T07:24:12.127Z,1146.00
2023-04-17T07:25:12.057Z,1156.00
2023-04-17T07:26:11.997Z,1131.00
2023-04-17T07:27:12.002Z,1114.00
2023-04-17T07:28:12.945Z,1090.00
2023-04-17T07:29:12.124Z,1071.00
2023-04-17T07:30:11.985Z,1064.00
2023-04-17T07:31:12.000Z,1044.00
2023-04-17T07:32:12.998Z,1029.00
2023-04-17T07:33:11.979Z,1000.00
2023-04-17T07:34:12.037Z,987.00
2023-04-17T07:35:12.994Z,959.00
2023-04-17T07:36:12.030Z,921.00
2023-04-17T07:37:12.025Z,894.00
2023-04-17T07:38:12.043Z,870.00
2023-04-17T07:39:12.299Z,905.00
2023-04-17T07:40:12.071Z,916.00
2023-04-17T07:41:12.067Z,907.00
2023-04-17T07:42:12.083Z,876.00
2023-04-17T07:43:12.098Z,841.00
2023-04-17T07:44:12.106Z,814.00
2023-04-17T07:45:12.144Z,806.00
2023-04-17T07:46:12.172Z,793.00
2023-04-17T07:47:12.319Z,782.00
2023-04-17T07:48:12.267Z,788.00
2023-04-17T07:49:12.653Z,780.00
2023-04-17T07:50:12.504Z,756.00
2023-04-17T07:51:12.291Z,740.00
2023-04-17T07:52:12.315Z,717.00
2023-04-17T07:53:12.348Z,681.00
2023-04-17T07:54:12.367Z,657.00
2023-04-17T07:55:13.022Z,655.00
2023-04-17T07:56:12.767Z,645.00
2023-04-17T07:57:12.451Z,649.00
2023-04-17T07:58:12.475Z,646.00
2023-04-17T07:59:12.751Z,636.00
2023-04-17T08:00:12.529Z,637.00
2023-04-17T08:01:12.578Z,637.00
2023-04-17T08:02:12.688Z,639.00
2023-04-17T08:03:12.822Z,634.00
2023-04-17T08:04:12.949Z,626.00
2023-04-17T08:05:12.720Z,618.00
2023-04-17T08:06:12.720Z,610.00
2023-04-17T08:07:12.765Z,604.00
2023-04-17T08:08:12.798Z,603.00
2023-04-17T08:09:13.116Z,601.00
2023-04-17T08:10:12.862Z,603.00
2023-04-17T08:11:12.895Z,602.00
2023-04-17T08:12:12.937Z,601.00
2023-04-17T08:13:12.962Z,594.00
2023-04-17T08:14:13.022Z,592.00
2023-04-17T08:15:13.066Z,599.00
2023-04-17T08:16:13.113Z,528.00
2023-04-17T08:17:13.201Z,524.00
2023-04-17T08:18:13.179Z,537.00
2023-04-17T08:19:13.542Z,540.00
2023-04-17T08:20:13.293Z,530.00
2023-04-17T08:21:14.305Z,539.00
2023-04-17T08:22:13.331Z,572.00
2023-04-17T08:23:13.382Z,589.00
2023-04-17T08:24:13.353Z,616.00
2023-04-17T08:25:13.357Z,640.00
2023-04-17T08:26:13.373Z,664.00
2023-04-17T08:27:13.360Z,706.00
2023-04-17T08:28:13.337Z,729.00
2023-04-17T08:29:13.543Z,518.00
2023-04-17T08:30:16.175Z,400.00
2023-04-17T08:31:13.398Z,400.00
2023-04-17T08:32:15.252Z,400.00
2023-04-17T08:33:13.931Z,400.00
2023-04-17T08:34:15.299Z,400.00
2023-04-17T08:35:13.304Z,400.00
2023-04-17T08:36:13.288Z,400.00
2023-04-17T08:37:13.277Z,400.00
2023-04-17T08:38:13.277Z,400.00
2023-04-17T08:39:13.527Z,446.00
2023-04-17T08:40:13.296Z,508.00
2023-04-17T08:41:13.398Z,538.00
2023-04-17T08:42:18.428Z,566.00
2023-04-17T08:43:14.376Z,568.00
2023-04-17T08:44:13.369Z,576.00
2023-04-17T08:45:13.327Z,600.00
2023-04-17T08:46:13.361Z,643.00
2023-04-17T08:47:13.301Z,781.00
2023-04-17T08:48:13.984Z,852.00
2023-04-17T08:49:13.576Z,924.00
2023-04-17T08:50:13.252Z,1003.00
2023-04-17T08:51:13.219Z,1081.00
2023-04-17T08:52:13.179Z,1156.00
2023-04-17T08:53:13.171Z,1211.00
2023-04-17T08:54:13.155Z,1280.00
2023-04-17T08:55:13.121Z,1342.00
2023-04-17T08:56:14.017Z,1419.00
2023-04-17T08:57:13.172Z,1460.00
2023-04-17T08:58:13.209Z,1523.00
2023-04-17T08:59:13.340Z,1582.00
2023-04-17T09:00:13.505Z,1648.00
2023-04-17T09:01:13.328Z,1687.00
2023-04-17T09:02:13.545Z,1745.00
2023-04-17T09:03:13.715Z,1776.00
2023-04-17T09:04:13.547Z,1828.00
2023-04-17T09:05:13.465Z,1867.00
2023-04-17T09:06:13.513Z,1968.00
2023-04-17T09:07:13.565Z,2008.00
2023-04-17T09:08:13.597Z,2051.00
2023-04-17T09:09:13.716Z,2112.00
2023-04-17T09:10:13.597Z,2132.00
2023-04-17T09:11:13.618Z,2152.00
2023-04-17T09:12:13.631Z,2212.00
2023-04-17T09:13:13.662Z,2242.00
2023-04-17T09:14:13.680Z,2296.00
2023-04-17T09:15:13.686Z,2334.00
2023-04-17T09:16:13.756Z,2366.00
2023-04-17T09:17:13.724Z,2417.00
2023-04-17T09:18:13.758Z,2457.00
2023-04-17T09:19:13.869Z,2478.00
2023-04-17T09:20:13.790Z,2502.00
2023-04-17T09:21:13.800Z,2514.00
2023-04-17T09:22:13.817Z,2525.00
2023-04-17T09:23:15.629Z,2590.00
2023-04-17T09:24:18.565Z,2620.00
2023-04-17T09:25:13.796Z,2622.00
2023-04-17T09:26:14.576Z,2633.00
2023-04-17T09:27:14.532Z,2660.00
2023-04-17T09:28:13.726Z,2714.00
2023-04-17T09:29:14.101Z,2780.00
2023-04-17T09:30:14.553Z,2818.00
2023-04-17T09:31:13.640Z,2841.00
2023-04-17T09:32:13.588Z,2894.00
2023-04-17T09:33:15.553Z,2921.00
2023-04-17T09:34:14.467Z,2936.00
2023-04-17T09:35:13.507Z,2954.00
2023-04-17T09:36:13.490Z,2984.00
2023-04-17T09:37:13.450Z,3016.00
2023-04-17T09:38:13.429Z,3015.00
2023-04-17T09:39:13.623Z,3028.00
2023-04-17T09:40:13.376Z,3057.00
2023-04-17T09:41:13.338Z,3072.00
2023-04-17T09:42:13.961Z,3092.00
2023-04-17T09:43:13.271Z,3088.00
2023-04-17T09:44:13.502Z,3119.00
2023-04-17T09:45:13.224Z,3119.00
2023-04-17T09:46:13.215Z,3141.00
2023-04-17T09:47:13.174Z,3156.00
2023-04-17T09:48:13.157Z,3168.00
2023-04-17T09:49:18.198Z,3175.00
2023-04-17T09:50:13.060Z,3176.00
2023-04-17T09:51:13.035Z,3184.00
2023-04-17T09:52:13.002Z,3208.00
2023-04-17T09:53:12.971Z,3250.00
2023-04-17T09:54:13.223Z,3307.00
2023-04-17T09:55:12.908Z,3333.00
2023-04-17T09:56:12.871Z,3348.00
2023-04-17T09:57:12.844Z,3335.00
2023-04-17T09:58:12.808Z,3362.00
2023-04-17T09:59:12.776Z,3384.00
2023-04-17T10:00:12.751Z,3391.00
2023-04-17T10:01:12.778Z,3398.00
2023-04-17T10:02:12.792Z,3440.00
2023-04-17T10:03:13.578Z,3468.00
2023-04-17T10:04:16.296Z,3485.00
2023-04-17T10:05:12.702Z,3502.00
2023-04-17T10:06:12.658Z,3514.00
2023-04-17T10:07:13.551Z,3520.00
2023-04-17T10:08:12.590Z,3527.00
2023-04-17T10:09:12.563Z,3538.00
2023-04-17T10:10:12.527Z,3556.00
2023-04-17T10:11:12.490Z,3575.00
2023-04-17T10:12:12.551Z,3580.00
2023-04-17T10:13:12.446Z,3597.00
2023-04-17T10:14:12.701Z,3627.00
2023-04-17T10:15:12.381Z,3656.00
2023-04-17T10:16:13.082Z,3640.00
2023-04-17T10:17:12.321Z,3655.00
2023-04-17T10:18:12.351Z,3684.00
2023-04-17T10:19:12.265Z,3700.00
2023-04-17T10:20:12.255Z,3648.00
2023-04-17T10:21:12.218Z,3651.00
2023-04-17T10:22:12.216Z,3635.00
2023-04-17T10:23:12.581Z,3635.00
2023-04-17T10:24:12.243Z,3607.00
2023-04-17T10:25:12.097Z,3576.00
2023-04-17T10:26:12.061Z,3534.00
2023-04-17T10:27:12.027Z,3492.00
2023-04-17T10:28:12.032Z,3465.00
2023-04-17T10:29:11.998Z,3413.00
2023-04-17T10:30:12.566Z,3413.00
2023-04-17T10:31:12.081Z,3414.00
2023-04-17T10:32:13.119Z,3391.00
2023-04-17T10:33:12.185Z,3378.00
2023-04-17T10:34:14.199Z,3374.00
2023-04-17T10:35:14.075Z,3414.00
2023-04-17T10:36:12.140Z,3415.00
2023-04-17T10:37:13.055Z,3417.00
2023-04-17T10:38:12.058Z,3406.00
2023-04-17T10:39:12.241Z,3367.00
2023-04-17T10:40:12.897Z,3364.00
2023-04-17T10:41:11.995Z,3313.00
2023-04-17T10:42:11.954Z,3291.00
2023-04-17T10:43:13.567Z,3298.00
2023-04-17T10:44:11.895Z,3294.00
2023-04-17T10:45:13.577Z,3260.00
2023-04-17T10:46:11.855Z,3279.00
2023-04-17T10:48:11.889Z,3286.00
2023-04-17T10:49:12.020Z,3310.00
2023-04-17T10:50:11.789Z,3319.00
2023-04-17T10:51:11.734Z,3326.00
2023-04-17T10:52:11.711Z,3354.00
2023-04-17T10:53:12.975Z,3349.00
2023-04-17T10:54:11.688Z,3356.00
2023-04-17T10:55:12.558Z,3362.00
2023-04-17T10:56:11.657Z,3356.00
2023-04-17T10:57:12.565Z,3366.00
2023-04-17T10:58:11.615Z,3371.00
2023-04-17T10:59:12.104Z,3380.00
2023-04-17T11:00:11.596Z,3395.00
2023-04-17T11:01:11.677Z,3389.00
2023-04-17T11:02:11.569Z,3387.00
2023-04-17T11:03:11.625Z,3378.00
2023-04-17T11:04:11.555Z,3361.00
2023-04-17T11:05:11.518Z,3321.00
2023-04-17T11:06:11.508Z,3337.00
2023-04-17T11:07:11.490Z,3331.00
2023-04-17T11:08:11.495Z,3350.00
2023-04-17T11:09:11.874Z,3363.00
2023-04-17T11:10:11.515Z,3346.00
2023-04-17T11:11:11.580Z,3335.00
2023-04-17T11:12:11.547Z,3356.00
2023-04-17T11:13:11.890Z,3345.00
2023-04-17T11:14:13.992Z,3346.00
2023-04-17T11:15:11.532Z,3344.00
2023-04-17T11:16:11.507Z,3338.00
2023-04-17T11:17:11.512Z,3338.00
2023-04-17T11:18:11.501Z,3339.00
2023-04-17T11:19:11.775Z,3324.00
2023-04-17T11:20:11.386Z,3324.00
2023-04-17T11:21:11.369Z,3326.00
2023-04-17T11:22:11.337Z,3311.00
2023-04-17T11:23:11.315Z,3302.00
2023-04-17T11:24:11.298Z,3300.00
2023-04-17T11:25:11.253Z,3289.00
2023-04-17T11:26:11.227Z,3280.00
2023-04-17T11:27:11.204Z,3271.00
2023-04-17T11:28:11.194Z,3266.00
2023-04-17T11:29:11.380Z,3251.00
2023-04-17T11:30:11.282Z,3265.00
2023-04-17T11:31:11.128Z,3230.00
2023-04-17T11:32:11.067Z,3244.00
2023-04-17T11:33:11.088Z,3217.00
2023-04-17T11:34:11.024Z,3226.00
2023-04-17T11:35:10.990Z,3221.00
2023-04-17T11:36:10.968Z,3207.00
2023-04-17T11:37:10.930Z,3204.00
2023-04-17T11:38:10.902Z,3188.00
2023-04-17T11:39:11.040Z,3191.00
2023-04-17T11:40:10.879Z,3193.00
2023-04-17T11:41:10.815Z,3161.00
2023-04-17T11:42:10.792Z,3145.00
2023-04-17T11:43:10.769Z,3096.00
2023-04-17T11:44:10.739Z,3032.00
2023-04-17T11:45:10.723Z,2954.00
2023-04-17T11:46:10.738Z,2910.00
2023-04-17T11:47:10.738Z,3035.00
2023-04-17T11:48:10.669Z,3064.00
2023-04-17T11:49:10.902Z,2844.00
2023-04-17T11:50:10.595Z,2844.00
2023-04-17T11:51:10.560Z,2903.00
2023-04-17T11:52:10.534Z,2861.00
2023-04-17T11:53:10.520Z,2854.00
2023-04-17T11:54:10.751Z,2850.00
2023-04-17T11:55:10.458Z,2828.00
2023-04-17T11:56:10.442Z,2814.00
2023-04-17T11:57:10.414Z,2779.00
2023-04-17T11:58:10.391Z,2748.00
2023-04-17T11:59:10.697Z,2701.00
2023-04-17T12:00:10.350Z,2661.00
2023-04-17T12:01:10.321Z,2625.00
2023-04-17T12:02:10.356Z,2578.00
2023-04-17T12:03:10.411Z,2550.00
2023-04-17T12:04:10.405Z,2518.00
2023-04-17T12:05:10.446Z,2492.00
2023-04-17T12:06:10.216Z,2474.00
2023-04-17T12:07:10.182Z,2465.00
2023-04-17T12:08:10.158Z,2449.00
2023-04-17T12:09:10.298Z,2440.00
2023-04-17T12:10:10.151Z,2413.00
2023-04-17T12:11:10.085Z,2406.00
2023-04-17T12:12:10.096Z,2419.00
2023-04-17T12:13:10.037Z,2396.00
2023-04-17T12:14:10.061Z,2404.00
2023-04-17T12:15:10.001Z,2394.00
2023-04-17T12:16:10.031Z,2398.00
2023-04-17T12:17:09.952Z,2378.00
2023-04-17T12:18:09.927Z,2382.00
2023-04-17T12:19:09.897Z,2369.00
2023-04-17T12:20:09.921Z,2367.00
2023-04-17T12:21:09.840Z,2350.00